Observations for LONDON GATWICK ARPT, United Kingdom (EGKK)

EGKK 221220Z 06007KT 360V120 9999 SCT022 SCT032 22/17 Q1019 
EGKK 221150Z 08005KT 350V120 9999 SCT019 BKN035 22/17 Q1019 
EGKK 221120Z 08004KT 340V130 9999 SCT017 SCT035 22/18 Q1019 
EGKK 221050Z VRB03KT 9999 FEW018 BKN035 22/17 Q1019 
EGKK 221020Z VRB03KT 9999 FEW015 BKN035 20/17 Q1020 
EGKK 220950Z VRB03KT 9999 FEW015 BKN034 20/17 Q1020 
EGKK 220920Z VRB02KT 9999 BKN033 20/17 Q1020
EGKK 220850Z 00000KT 9999 BKN030 19/16 Q1020
EGKK 220820Z 00000KT 9999 FEW009 BKN032 18/16 Q1020 
EGKK 220750Z 18003KT 9000 FEW008 BKN030 18/16 Q1020 
EGKK 220720Z 00000KT 8000 SCT007 BKN024 17/16 Q1020 
EGKK 220650Z VRB02KT 6000 FEW007 SCT012 BKN024 17/16 Q1020  
EGKK 220620Z 00000KT 6000 SCT012 BKN024 17/16 Q1020 
EGKK 220550Z 00000KT 5000 -RADZ BKN013 17/16 Q1020  
EGKK 220520Z VRB02KT 7000 3000W -RADZ BKN010 OVC015 17/16 Q1020 
EGKK 220450Z 12003KT 7000 FEW007 OVC014 17/16 Q1020 
EGKK 220420Z VRB03KT 7000 OVC014 17/16 Q1020
EGKK 220350Z VRB02KT 7000 FEW006 OVC014 17/16 Q1020 
EGKK 220320Z VRB03KT 7000 FEW006 OVC013 17/16 Q1020 
EGKK 220250Z VRB02KT 7000 BKN006 OVC012 17/16 Q1020 
EGKK 220220Z VRB02KT 7000 BKN007 OVC010 17/16 Q1020 
EGKK 220150Z VRB02KT 6000 FEW006 OVC011 17/16 Q1020 
EGKK 220120Z 15002KT 5000 BR FEW006 BKN012 17/16 Q1020  
EGKK 220050Z 16002KT 4400 BR BKN004 17/17 Q1020 
EGKK 220020Z VRB02KT 4200 BR BKN004 17/17 Q1021 
EGKK 212350Z VRB03KT 3800 BR BKN004 17/17 Q1021 
EGKK 212320Z 15003KT 3500 BR BKN003 17/17 Q1021 
EGKK 212250Z VRB03KT 3500 BR BKN003 17/17 Q1021 
EGKK 212220Z VRB03KT 3800 BR BKN004 17/17 Q1021 
EGKK 212150Z VRB02KT 4000 BR BKN004 17/17 Q1021 
EGKK 212120Z VRB02KT 4300 BR BKN003 17/17 Q1021 
EGKK 212050Z 22002KT 6000 BKN004 18/17 Q1021
EGKK 212020Z VRB03KT 7000 BKN005 18/17 Q1021
EGKK 211950Z 17003KT 7000 BKN004 18/17 Q1021
EGKK 211920Z 16002KT 7000 BKN005 18/17 Q1021
EGKK 211850Z 15002KT 6000 BKN003 18/17 Q1021
EGKK 211820Z VRB02KT 3800 -DZ BR FEW003 BKN006 18/17 Q1021  
EGKK 211750Z 12002KT 4000 -DZ HZ BKN006 18/17 Q1021 
EGKK 211720Z VRB02KT 6000 FEW005 BKN009 18/17 Q1021 
EGKK 211650Z 08003KT 6000 -DZ FEW005 BKN011 18/17 Q1021 
EGKK 211620Z VRB03KT 5000 -DZRA FEW008 BKN012 18/17 Q1021   
EGKK 211550Z 09003KT 9000 BKN012 18/17 Q1021
EGKK 211520Z 13004KT 090V160 9999 BKN013 18/17 Q1021
EGKK 211450Z 11004KT 060V150 9999 BKN015 19/16 Q1021
EGKK 211420Z VRB03KT 9999 BKN012 19/16 Q1021
EGKK 211350Z VRB02KT 9999 BKN011 19/16 Q1021
EGKK 211320Z 07004KT 030V120 9999 FEW009 BKN016 19/17 Q1021 
EGKK 211250Z 06004KT 030V090 6000 SCT007 BKN010 18/17 Q1021 
EGKK 211220Z 06004KT 020V110 6000 BKN007 BKN010 18/16 Q1021 
EGKK 211150Z 07005KT 020V110 9999 SCT006 BKN009 OVC014 18/16 Q1021